Time;durP1;ratioP1;P1;durP2;ratioP2;P2;SDS_P1;SDS_P2;PMS_P1;PMS_P2;Temp;Humidity;BMP_temperature;BMP_pressure;BME280_temperature;BME280_humidity;BME280_pressure;Samples;Min_cycle;Max_cycle;Signal;HPM_P1;HPM_P2
2021/06/12 00:00:38;;;;;;;6.50;5.80;;;;;;;23.93;60.00;100023.00;2066182;28;20045;-67
2021/06/12 00:01:38;;;;;;;7.30;6.57;;;;;;;23.94;59.92;100021.09;2068969;28;20029;-67
2021/06/12 00:02:39;;;;;;;6.87;6.07;;;;;;;23.93;59.98;100025.75;2068035;28;20037;-67
2021/06/12 00:03:39;;;;;;;6.53;5.93;;;;;;;23.93;59.96;100023.00;2068551;28;20032;-67
2021/06/12 00:04:40;;;;;;;6.17;5.57;;;;;;;23.93;60.01;100025.75;2068284;28;20033;-67
2021/06/12 00:05:40;;;;;;;6.30;5.70;;;;;;;23.93;60.06;100025.75;2067357;28;20030;-67
2021/06/12 00:06:40;;;;;;;6.33;5.73;;;;;;;23.92;59.93;100029.53;2068541;28;20029;-67
2021/06/12 00:07:41;;;;;;;6.27;5.67;;;;;;;23.93;60.14;100025.75;2067968;28;20771;-67
2021/06/12 00:08:41;;;;;;;6.87;5.70;;;;;;;23.93;60.06;100036.78;2067489;28;20132;-67
2021/06/12 00:09:42;;;;;;;6.70;6.00;;;;;;;23.92;60.02;100024.03;2072486;28;20946;-67
2021/06/12 00:10:43;;;;;;;6.93;6.23;;;;;;;23.93;60.00;100034.03;2071615;28;20021;-67
2021/06/12 00:11:44;;;;;;;7.15;5.93;;;;;;;23.93;60.08;100034.03;2074666;28;20028;-67
2021/06/12 00:12:45;;;;;;;6.87;6.17;;;;;;;23.93;60.12;100038.63;2069089;28;20021;-67
2021/06/12 00:13:45;;;;;;;6.57;5.97;;;;;;;23.93;60.14;100035.88;2073855;28;20103;-67
2021/06/12 00:14:47;;;;;;;6.03;5.53;;;;;;;23.92;60.04;100035.03;2065509;28;20063;-67
2021/06/12 00:15:48;;;;;;;7.28;6.57;;;;;;;23.92;60.06;100035.03;2070200;28;20574;-67
2021/06/12 00:16:49;;;;;;;6.10;5.50;;;;;;;23.91;60.02;100041.59;2074353;28;20431;-66
2021/06/12 00:17:50;;;;;;;7.13;6.43;;;;;;;23.92;60.09;100040.53;2056951;28;20033;-67
2021/06/12 00:18:50;;;;;;;6.88;6.20;;;;;;;23.92;60.09;100040.53;2059113;28;20280;-67
2021/06/12 00:19:51;;;;;;;7.40;6.17;;;;;;;23.92;60.05;100045.19;2067459;28;20892;-67
2021/06/12 00:20:55;;;;;;;7.22;6.53;;;;;;;23.91;59.97;100044.34;2068022;28;20091;-67
2021/06/12 00:21:56;;;;;;;7.10;6.40;;;;;;;23.92;60.00;100043.28;2066999;28;20112;-67
2021/06/12 00:22:57;;;;;;;6.80;6.10;;;;;;;23.92;60.05;100037.78;2067920;28;20021;-67
2021/06/12 00:23:57;;;;;;;7.72;6.32;;;;;;;23.92;59.87;100042.44;2068526;28;20062;-67
2021/06/12 00:24:58;;;;;;;7.30;6.70;;;;;;;23.92;59.89;100034.19;2067241;28;20056;-67
2021/06/12 00:25:58;;;;;;;7.97;6.37;;;;;;;23.91;60.06;100044.34;2069247;28;20387;-67
2021/06/12 00:26:59;;;;;;;6.70;6.00;;;;;;;23.91;59.94;100032.47;2067367;28;20104;-67
2021/06/12 00:28:00;;;;;;;7.07;6.37;;;;;;;23.91;60.03;100038.84;2062517;28;20469;-66
2021/06/12 00:29:01;;;;;;;7.38;6.68;;;;;;;23.90;60.05;100033.50;2066871;28;20076;-67
2021/06/12 00:30:03;;;;;;;6.33;5.73;;;;;;;23.91;60.05;100038.84;2073642;28;20040;-67
2021/06/12 00:31:04;;;;;;;;;;;;;;;23.87;60.07;100033.88;2067505;28;20567;-67
2021/06/12 00:32:05;;;;;;;7.45;6.50;;;;;;;23.88;60.05;100041.94;2068469;28;20777;-67
2021/06/12 00:33:05;;;;;;;7.75;6.45;;;;;;;23.88;60.07;100044.69;2068090;28;20112;-67
2021/06/12 00:34:06;;;;;;;6.43;5.87;;;;;;;23.88;59.71;100044.69;2068095;28;20530;-67
2021/06/12 00:35:10;;;;;;;7.50;6.40;;;;;;;23.88;60.05;100041.94;2068083;28;20029;-67
2021/06/12 00:36:10;;;;;;;7.75;6.15;;;;;;;23.88;59.97;100036.44;2067653;28;20060;-67
2021/06/12 00:37:10;;;;;;;7.00;6.03;;;;;;;23.88;60.09;100036.44;2074558;28;20032;-66
2021/06/12 00:38:12;;;;;;;6.93;6.23;;;;;;;23.90;59.96;100037.13;2065646;28;20116;-67
2021/06/12 00:39:12;;;;;;;7.25;6.30;;;;;;;23.90;59.88;100041.78;2067652;28;20081;-67
2021/06/12 00:40:14;;;;;;;7.47;6.43;;;;;;;23.89;60.02;100035.41;2067761;28;20099;-67
2021/06/12 00:41:15;;;;;;;6.68;6.07;;;;;;;23.89;59.71;100034.56;2069063;28;20474;-67
2021/06/12 00:42:16;;;;;;;7.60;6.20;;;;;;;23.89;59.93;100035.41;2066815;28;20021;-67
2021/06/12 00:43:17;;;;;;;6.55;5.90;;;;;;;23.89;60.10;100027.16;2067210;28;20126;-67
2021/06/12 00:44:17;;;;;;;6.27;5.67;;;;;;;23.88;59.87;100025.41;2068980;28;20041;-67
2021/06/12 00:45:21;;;;;;;6.57;5.97;;;;;;;23.88;59.96;100033.69;2067185;28;20468;-67
2021/06/12 00:46:22;;;;;;;7.72;6.68;;;;;;;23.89;60.01;100038.16;2067962;28;20160;-67
2021/06/12 00:47:22;;;;;;;7.20;6.53;;;;;;;23.89;60.07;100029.91;2068600;28;20538;-67
2021/06/12 00:48:27;;;;;;;7.33;6.63;;;;;;;23.89;60.00;100035.41;2067090;28;20399;-67
2021/06/12 00:49:27;;;;;;;7.65;6.30;;;;;;;23.89;59.93;100029.91;2064523;28;20040;-67
2021/06/12 00:50:32;;;;;;;6.93;5.60;;;;;;;23.88;60.01;100033.69;2068059;28;20036;-67
2021/06/12 00:51:32;;;;;;;6.53;5.85;;;;;;;23.89;59.95;100040.06;2067688;28;20353;-67
2021/06/12 00:52:33;;;;;;;6.60;5.97;;;;;;;23.88;59.90;100038.34;2068095;28;20059;-67
2021/06/12 00:53:42;;;;;;;6.93;5.90;;;;;;;23.88;59.93;100039.19;2067213;28;20659;-66
2021/06/12 00:54:43;;;;;;;6.57;5.97;;;;;;;23.87;59.94;100037.50;2066109;28;20277;-67
2021/06/12 00:55:43;;;;;;;7.00;6.30;;;;;;;23.87;59.89;100040.25;2066894;28;20079;-67
2021/06/12 00:56:44;;;;;;;6.00;5.47;;;;;;;23.89;59.97;100045.56;2068390;28;20040;-67
2021/06/12 00:57:46;;;;;;;6.90;6.13;;;;;;;23.88;59.80;100041.94;2068891;28;20618;-66
2021/06/12 00:58:49;;;;;;;5.80;5.20;;;;;;;23.88;59.95;100050.19;2065052;28;20091;-66
2021/06/12 00:59:49;;;;;;;6.20;5.60;;;;;;;23.88;59.90;100044.69;2069592;28;20063;-67
2021/06/12 01:00:49;;;;;;;6.43;5.83;;;;;;;23.87;59.91;100054.00;2067858;28;20037;-67
2021/06/12 01:01:50;;;;;;;6.47;5.77;;;;;;;23.88;59.89;100047.44;2067629;28;20052;-67
2021/06/12 01:02:51;;;;;;;6.80;6.07;;;;;;;23.89;59.95;100046.44;2068039;28;20045;-67
2021/06/12 01:03:51;;;;;;;6.47;5.80;;;;;;;23.87;59.98;100040.25;2068303;28;20656;-67
2021/06/12 01:04:52;;;;;;;6.13;5.50;;;;;;;23.87;59.84;100054.00;2068279;28;20053;-67
2021/06/12 01:05:52;;;;;;;6.97;6.27;;;;;;;23.88;60.01;100050.19;2068026;28;20366;-67
2021/06/12 01:06:53;;;;;;;6.27;5.67;;;;;;;23.85;59.99;100050.56;2066130;28;20075;-67
2021/06/12 01:07:53;;;;;;;6.80;6.20;;;;;;;23.86;59.92;100052.31;2057565;28;20684;-67
2021/06/12 01:08:54;;;;;;;6.30;5.67;;;;;;;23.86;59.96;100057.81;2058683;28;20056;-67
2021/06/12 01:09:54;;;;;;;6.70;6.07;;;;;;;23.87;59.95;100050.41;2068430;28;20742;-67
2021/06/12 01:10:55;;;;;;;5.70;5.20;;;;;;;23.87;60.09;100054.00;2068344;28;20029;-67
2021/06/12 01:12:33;;;;;;;6.47;5.87;;;;;;;23.85;59.99;100056.06;2068285;28;20104;-67
2021/06/12 01:14:08;;;;;;;6.90;5.75;;;;;;;23.84;59.87;100053.53;2067848;28;20352;-67
2021/06/12 01:15:10;;;;;;;6.85;6.07;;;;;;;23.84;60.08;100054.38;2064708;28;20052;-67
2021/06/12 01:16:34;;;;;;;7.25;6.55;;;;;;;23.83;60.14;100055.41;2076276;28;20110;-67
2021/06/12 01:17:46;;;;;;;6.13;5.53;;;;;;;23.83;59.99;100052.66;2066395;28;20025;-67
2021/06/12 01:18:49;;;;;;;6.60;5.38;;;;;;;23.84;60.11;100054.38;2063683;28;20082;-67
2021/06/12 01:20:12;;;;;;;6.72;6.13;;;;;;;23.84;60.01;100059.88;2068783;28;20237;-67
2021/06/12 01:21:31;;;;;;;6.10;5.53;;;;;;;23.82;60.18;100061.94;2060334;28;20026;-67
2021/06/12 01:22:47;;;;;;;6.68;5.75;;;;;;;23.82;60.02;100056.44;2065739;28;20039;-67
2021/06/12 01:23:53;;;;;;;6.32;5.72;;;;;;;23.84;60.06;100059.03;2067962;28;20112;-67
2021/06/12 01:25:06;;;;;;;6.60;6.00;;;;;;;23.82;60.17;100058.34;2067318;28;20022;-67
2021/06/12 01:26:14;;;;;;;7.15;5.82;;;;;;;23.83;60.07;100065.56;2067404;28;20827;-67
2021/06/12 01:27:23;;;;;;;6.00;5.20;;;;;;;23.82;60.01;100063.84;2069673;28;20021;-67
2021/06/12 01:29:08;;;;;;;6.78;6.13;;;;;;;23.81;60.07;100060.22;2066384;28;20104;-64
2021/06/12 01:30:33;;;;;;;5.90;5.40;;;;;;;23.81;60.09;100054.72;2067858;28;20332;-65
2021/06/12 01:31:35;;;;;;;6.97;6.28;;;;;;;23.80;60.04;100055.78;2065687;28;20071;-66
2021/06/12 01:32:39;;;;;;;6.30;5.75;;;;;;;23.81;60.11;100054.72;2069630;28;20492;-66
2021/06/12 01:33:43;;;;;;;5.57;5.07;;;;;;;23.82;60.10;100061.09;2059646;28;20036;-66
2021/06/12 01:34:46;;;;;;;6.20;5.60;;;;;;;23.81;60.01;100054.72;2056385;28;20026;-66
2021/06/12 01:35:51;;;;;;;6.70;5.95;;;;;;;23.81;59.99;100060.22;2070621;28;20328;-66
2021/06/12 01:36:52;;;;;;;6.97;6.30;;;;;;;23.82;59.91;100056.44;2065394;28;20225;-65
2021/06/12 01:37:54;;;;;;;10.73;6.43;;;;;;;23.82;59.91;100056.44;2067253;28;20025;-65
2021/06/12 01:38:56;;;;;;;6.97;6.00;;;;;;;23.82;59.96;100059.19;2061027;28;20037;-65
2021/06/12 01:39:58;;;;;;;7.90;6.07;;;;;;;23.82;60.01;100053.69;2069324;28;20129;-66
2021/06/12 01:41:04;;;;;;;7.47;6.00;;;;;;;23.83;60.08;100052.66;2067882;28;20021;-66
2021/06/12 01:42:07;;;;;;;6.25;5.30;;;;;;;23.83;59.93;100052.66;2068037;28;20363;-66
2021/06/12 01:43:11;;;;;;;5.90;5.30;;;;;;;23.83;59.95;100054.53;2067154;28;20034;-66
2021/06/12 01:44:12;;;;;;;6.05;5.45;;;;;;;23.83;60.05;100047.13;2067632;28;20021;-65
2021/06/12 01:45:14;;;;;;;6.43;5.82;;;;;;;23.84;60.00;100053.53;2068269;28;20415;-66
2021/06/12 01:46:16;;;;;;;6.63;5.40;;;;;;;23.84;60.01;100050.78;2068030;28;20099;-66
2021/06/12 01:47:17;;;;;;;6.30;5.70;;;;;;;23.83;60.01;100047.13;2067105;28;20026;-66
2021/06/12 01:48:20;;;;;;;5.90;5.30;;;;;;;23.82;59.93;100050.94;2067617;28;20726;-66
2021/06/12 01:49:21;;;;;;;6.55;5.93;;;;;;;23.83;60.09;100047.13;2069108;28;20080;-66
2021/06/12 01:50:23;;;;;;;5.95;5.35;;;;;;;23.83;59.94;100052.66;2067232;28;20059;-66
2021/06/12 01:51:25;;;;;;;6.40;5.80;;;;;;;23.83;60.01;100051.78;2066472;28;20187;-66
2021/06/12 01:52:27;;;;;;;;;;;;;;;23.79;59.97;100059.56;2067024;28;20072;-66
2021/06/12 01:53:31;;;;;;;6.00;5.40;;;;;;;23.80;60.03;100058.53;2067759;28;19965;-66
2021/06/12 01:54:33;;;;;;;5.97;5.38;;;;;;;23.80;60.16;100055.78;2068103;28;20025;-66
2021/06/12 01:55:36;;;;;;;6.38;5.78;;;;;;;23.80;59.92;100053.00;2069552;28;20567;-65
2021/06/12 01:56:38;;;;;;;5.90;5.35;;;;;;;23.80;59.91;100055.78;2066104;28;20504;-65
2021/06/12 01:57:42;;;;;;;6.85;6.15;;;;;;;23.81;60.05;100059.38;2065803;28;20057;-66
2021/06/12 01:58:44;;;;;;;6.68;6.07;;;;;;;23.81;60.21;100051.97;2068311;28;20407;-66
2021/06/12 01:59:47;;;;;;;6.03;5.43;;;;;;;23.81;59.88;100054.72;2067016;28;20033;-66
2021/06/12 02:00:49;;;;;;;6.90;6.20;;;;;;;23.81;60.04;100051.97;2067696;28;20048;-66
2021/06/12 02:01:52;;;;;;;6.38;5.78;;;;;;;23.81;59.99;100051.97;2068057;28;20120;-66
2021/06/12 02:02:55;;;;;;;5.50;5.00;;;;;;;23.84;59.83;100056.28;2067512;28;20028;-66
2021/06/12 02:03:57;;;;;;;6.47;5.88;;;;;;;23.82;59.92;100056.44;2066728;28;20021;-66
2021/06/12 02:04:58;;;;;;;6.78;6.10;;;;;;;23.82;60.11;100050.94;2067261;28;20108;-66
2021/06/12 02:06:00;;;;;;;6.60;6.00;;;;;;;23.82;59.89;100055.59;2065933;28;20029;-66
2021/06/12 02:07:02;;;;;;;5.55;5.05;;;;;;;23.83;59.96;100057.31;2061616;28;20033;-65
2021/06/12 02:08:03;;;;;;;;;;;;;;;23.78;60.02;100054.25;2065521;28;20537;-65
2021/06/12 02:09:04;;;;;;;5.63;5.13;;;;;;;23.78;60.01;100049.59;2067352;28;19921;-65
2021/06/12 02:10:07;;;;;;;6.00;5.50;;;;;;;23.80;59.94;100057.66;2057330;28;20022;-66
2021/06/12 02:11:08;;;;;;;6.20;5.60;;;;;;;23.79;60.12;100055.94;2060053;28;20018;-66
2021/06/12 02:12:09;;;;;;;5.30;4.85;;;;;;;23.79;59.98;100056.81;2069726;28;20022;-66
2021/06/12 02:13:10;;;;;;;6.35;5.60;;;;;;;23.79;59.93;100056.81;2068670;28;20026;-66
2021/06/12 02:14:13;;;;;;;6.38;5.32;;;;;;;23.81;59.99;100054.72;2068138;28;20067;-65
2021/06/12 02:15:14;;;;;;;6.40;5.72;;;;;;;23.80;59.97;100058.53;2067529;28;20060;-66
2021/06/12 02:16:16;;;;;;;5.90;5.20;;;;;;;23.80;60.02;100057.66;2068147;28;20033;-66
2021/06/12 02:17:19;;;;;;;6.05;5.55;;;;;;;23.80;60.04;100064.03;2067750;28;20044;-66
2021/06/12 02:18:22;;;;;;;5.72;4.97;;;;;;;23.81;59.93;100059.38;2066114;28;20507;-66
2021/06/12 02:19:24;;;;;;;5.97;5.38;;;;;;;23.81;60.00;100065.72;2063778;28;20037;-66
2021/06/12 02:20:26;;;;;;;6.82;6.13;;;;;;;23.81;60.12;100065.72;2065239;28;20408;-66
2021/06/12 02:21:27;;;;;;;6.45;5.80;;;;;;;23.80;60.01;100069.53;2069107;28;20029;-66
2021/06/12 02:22:28;;;;;;;5.90;5.30;;;;;;;23.80;60.08;100069.53;2067853;28;20021;-66
2021/06/12 02:23:30;;;;;;;6.53;5.30;;;;;;;23.80;59.97;100075.03;2067820;28;20804;-66
2021/06/12 02:24:31;;;;;;;5.50;5.00;;;;;;;23.79;59.93;100078.84;2070379;28;20075;-65
2021/06/12 02:25:32;;;;;;;5.90;5.30;;;;;;;23.79;59.99;100078.84;2076126;28;20021;-65
2021/06/12 02:26:37;;;;;;;5.95;5.45;;;;;;;23.80;60.00;100083.28;2066472;28;20059;-66
2021/06/12 02:27:44;;;;;;;6.50;5.80;;;;;;;23.79;59.91;100083.47;2067300;28;20072;-66
2021/06/12 02:28:47;;;;;;;6.57;5.85;;;;;;;23.80;59.89;100086.03;2066814;28;20274;-66
2021/06/12 02:29:50;;;;;;;6.53;5.90;;;;;;;23.79;59.90;100089.84;2056006;28;20545;-66
2021/06/12 02:31:16;;;;;;;6.75;5.30;;;;;;;23.77;60.00;100083.66;2059849;28;20036;-66
2021/06/12 02:32:19;;;;;;;5.65;5.15;;;;;;;23.78;60.06;100088.13;2061767;28;20045;-66
2021/06/12 02:33:21;;;;;;;5.93;5.35;;;;;;;23.78;60.04;100090.88;2066413;28;20080;-66
2021/06/12 02:34:22;;;;;;;6.47;5.18;;;;;;;23.79;60.09;100089.84;2067735;28;20029;-66
2021/06/12 02:35:22;;;;;;;5.60;5.10;;;;;;;23.78;60.22;100093.63;2065863;28;20053;-66
2021/06/12 02:36:23;;;;;;;6.67;5.37;;;;;;;23.78;59.96;100093.63;2068726;28;20041;-66
2021/06/12 02:37:23;;;;;;;5.77;5.17;;;;;;;23.78;60.01;100099.13;2071163;28;20030;-66
2021/06/12 02:38:24;;;;;;;5.33;4.83;;;;;;;23.79;59.96;100100.84;2068499;28;20093;-66
2021/06/12 02:39:24;;;;;;;5.57;5.07;;;;;;;23.79;59.85;100098.09;2069032;28;20493;-66
2021/06/12 02:40:26;;;;;;;6.53;5.07;;;;;;;23.79;60.02;100095.34;2068967;28;20057;-65
2021/06/12 02:41:26;;;;;;;7.30;5.57;;;;;;;23.78;60.10;100099.13;2069208;28;20029;-66
2021/06/12 02:42:27;;;;;;;6.67;5.70;;;;;;;23.78;59.91;100093.63;2066586;28;20041;-66
2021/06/12 02:43:28;;;;;;;5.87;5.30;;;;;;;23.78;59.91;100096.38;2069805;28;20037;-66
2021/06/12 02:44:28;;;;;;;5.90;5.30;;;;;;;23.79;59.98;100100.84;2069432;28;20115;-66
2021/06/12 02:45:29;;;;;;;6.40;5.80;;;;;;;23.79;59.95;100099.97;2069147;28;20025;-66
2021/06/12 02:46:32;;;;;;;6.27;5.67;;;;;;;23.79;59.96;100108.22;2069641;28;20033;-66
2021/06/12 02:47:36;;;;;;;6.35;5.55;;;;;;;23.78;60.01;100107.38;2069972;28;20039;-66
2021/06/12 02:48:38;;;;;;;6.55;5.95;;;;;;;23.78;59.99;100104.63;2067829;28;20477;-66
2021/06/12 02:49:40;;;;;;;5.65;5.15;;;;;;;23.78;59.89;100107.38;2069766;28;20032;-66
2021/06/12 02:50:43;;;;;;;6.22;5.45;;;;;;;23.78;59.93;100110.13;2067136;28;20643;-66
2021/06/12 02:51:56;;;;;;;6.88;5.50;;;;;;;23.77;60.07;100108.44;2067772;28;20031;-66
2021/06/12 02:53:04;;;;;;;5.43;4.93;;;;;;;23.78;59.89;100103.78;2069417;28;20478;-66
2021/06/12 02:54:04;;;;;;;6.20;5.60;;;;;;;23.78;59.91;100109.28;2066579;28;20381;-66
2021/06/12 02:55:08;;;;;;;5.67;5.17;;;;;;;23.77;59.83;100102.94;2073267;28;20521;-66
2021/06/12 02:56:11;;;;;;;5.75;5.25;;;;;;;23.77;59.83;100108.44;2061446;28;20506;-66
2021/06/12 02:57:13;;;;;;;5.15;4.68;;;;;;;23.78;60.03;100103.78;2063301;28;20735;-66
2021/06/12 02:58:20;;;;;;;6.25;5.65;;;;;;;23.78;60.06;100109.28;2068064;28;20107;-66
2021/06/12 02:59:22;;;;;;;6.07;5.47;;;;;;;23.78;59.97;100115.63;2069463;28;20036;-66
2021/06/12 03:00:23;;;;;;;5.70;5.10;;;;;;;23.77;59.87;100119.44;2066134;28;20029;-65
2021/06/12 03:01:25;;;;;;;5.50;4.93;;;;;;;23.78;59.99;100120.28;2068936;28;20026;-65
2021/06/12 03:02:28;;;;;;;6.35;5.40;;;;;;;23.77;60.01;100113.94;2070236;28;20260;-66
2021/06/12 03:03:33;;;;;;;5.88;5.32;;;;;;;23.76;60.08;100117.72;2069030;28;20021;-65
2021/06/12 03:06:31;;;;;;;5.70;5.00;;;;;;;23.75;59.97;100113.25;2065156;28;20017;-65
2021/06/12 03:07:34;;;;;;;5.83;5.23;;;;;;;23.74;59.97;100115.16;2060170;23;20918;-65
2021/06/12 03:08:39;;;;;;;6.07;5.47;;;;;;;23.74;60.04;100114.31;2052205;28;20065;-65
2021/06/12 03:09:41;;;;;;;5.13;4.63;;;;;;;23.75;60.04;100110.50;2052522;28;20501;-65
2021/06/12 03:10:44;;;;;;;5.75;5.07;;;;;;;23.76;60.17;100120.47;2045366;28;20517;-65
2021/06/12 03:11:46;;;;;;;5.82;5.32;;;;;;;23.75;59.81;100116.84;2050114;28;20030;-66
2021/06/12 03:12:47;;;;;;;;;;;;;;;23.71;60.12;100122.88;2061257;28;20037;-66
2021/06/12 03:13:50;;;;;;;6.00;5.40;;;;;;;23.73;60.02;100124.44;2049020;28;19917;-66
2021/06/12 03:14:51;;;;;;;6.20;5.60;;;;;;;23.73;59.98;100118.94;2051403;28;20030;-66
2021/06/12 03:15:54;;;;;;;5.45;4.93;;;;;;;23.73;59.99;100118.06;2045430;28;20073;-66
2021/06/12 03:16:55;;;;;;;6.00;5.22;;;;;;;23.72;60.02;100119.94;2054346;28;20037;-65
2021/06/12 03:17:57;;;;;;;6.20;5.60;;;;;;;23.74;59.92;100119.81;2059562;28;20034;-66
2021/06/12 03:18:59;;;;;;;5.82;5.18;;;;;;;23.73;59.96;100118.06;2045316;28;20475;-66
2021/06/12 03:20:01;;;;;;;6.00;5.35;;;;;;;23.74;60.01;100125.31;2049153;28;20125;-66
2021/06/12 03:21:03;;;;;;;5.20;4.70;;;;;;;23.73;60.13;100121.69;2052900;28;20311;-66
2021/06/12 03:22:06;;;;;;;6.25;5.65;;;;;;;23.74;60.00;100119.81;2048111;28;20524;-66
2021/06/12 03:23:08;;;;;;;6.00;5.50;;;;;;;23.73;60.01;100112.56;2044933;28;20097;-66
2021/06/12 03:24:13;;;;;;;5.82;5.13;;;;;;;23.74;60.05;100120.66;2052457;28;20029;-66
2021/06/12 03:25:18;;;;;;;5.68;5.00;;;;;;;23.74;60.03;100119.81;2048763;28;20035;-66
2021/06/12 03:26:20;;;;;;;5.57;5.07;;;;;;;23.73;60.00;100113.41;2045123;28;20568;-66
2021/06/12 03:27:21;;;;;;;6.40;5.80;;;;;;;23.73;60.09;100109.81;2045038;28;20030;-66
2021/06/12 03:28:22;;;;;;;5.78;5.10;;;;;;;23.74;59.95;100114.31;2058589;28;20032;-66
2021/06/12 03:29:23;;;;;;;5.87;5.27;;;;;;;23.74;59.96;100117.06;2045312;28;20054;-66
2021/06/12 03:30:24;;;;;;;5.17;4.67;;;;;;;23.74;59.95;100115.16;2048576;28;20307;-66
2021/06/12 03:31:24;;;;;;;6.57;5.50;;;;;;;23.74;59.96;100114.31;2053723;28;20029;-66
2021/06/12 03:32:26;;;;;;;5.53;5.03;;;;;;;23.75;60.00;100118.75;2046850;28;20050;-65
2021/06/12 03:33:26;;;;;;;5.78;5.18;;;;;;;23.73;59.88;100118.94;2045915;28;20085;-66
2021/06/12 03:34:28;;;;;;;5.97;5.37;;;;;;;23.74;59.99;100122.56;2052174;28;20034;-66
2021/06/12 03:35:29;;;;;;;5.80;5.30;;;;;;;23.73;59.86;100118.06;2052360;28;20022;-65
2021/06/12 03:36:30;;;;;;;5.50;5.00;;;;;;;23.75;59.89;100122.38;2052996;28;20022;-66
2021/06/12 03:37:31;;;;;;;5.95;5.35;;;;;;;23.74;59.87;100125.31;2051997;28;20026;-66
2021/06/12 03:38:35;;;;;;;6.47;5.80;;;;;;;23.75;59.85;100132.53;2047821;28;20021;-66
2021/06/12 03:39:35;;;;;;;5.65;5.15;;;;;;;23.74;59.95;100122.56;2050566;28;20239;-65
2021/06/12 03:40:36;;;;;;;6.10;5.57;;;;;;;23.74;59.99;100125.31;2046374;28;20471;-65
2021/06/12 03:41:37;;;;;;;5.17;4.57;;;;;;;23.73;59.92;100129.94;2045424;28;20030;-65
2021/06/12 03:42:38;;;;;;;5.47;4.97;;;;;;;23.74;59.95;100125.31;2051292;28;20285;-65
2021/06/12 03:43:40;;;;;;;5.45;4.82;;;;;;;23.73;59.92;100124.44;2047113;28;20034;-65
2021/06/12 03:44:44;;;;;;;6.15;5.55;;;;;;;23.72;60.04;100119.94;2051709;28;20535;-65
2021/06/12 03:45:47;;;;;;;5.13;4.63;;;;;;;23.73;59.88;100129.09;2046584;28;20030;-65
2021/06/12 03:46:49;;;;;;;6.10;5.50;;;;;;;23.73;60.03;100123.59;2049020;28;20027;-65
2021/06/12 03:47:51;;;;;;;5.63;5.13;;;;;;;23.72;60.00;100125.44;2049115;28;20751;-66
2021/06/12 03:48:54;;;;;;;6.15;5.18;;;;;;;23.73;59.88;100134.59;2044628;28;20019;-66
2021/06/12 03:49:54;;;;;;;5.95;5.35;;;;;;;23.73;59.88;100129.09;2050010;28;20283;-65
2021/06/12 03:50:57;;;;;;;5.50;4.83;;;;;;;23.72;60.09;100128.19;2052126;28;20117;-65
2021/06/12 03:51:58;;;;;;;6.10;5.50;;;;;;;23.72;60.03;100135.59;2052205;28;20105;-66
2021/06/12 03:53:01;;;;;;;6.30;4.88;;;;;;;23.72;60.01;100132.84;2047723;28;20022;-69
2021/06/12 03:54:03;;;;;;;4.85;4.43;;;;;;;23.72;59.96;100132.84;2053102;28;20034;-65
2021/06/12 03:55:05;;;;;;;6.18;5.53;;;;;;;23.71;59.98;100128.38;2053639;28;20026;-65
2021/06/12 03:56:05;;;;;;;6.40;5.85;;;;;;;23.72;59.86;100130.09;2050400;28;20019;-65
2021/06/12 03:57:07;;;;;;;6.07;5.47;;;;;;;23.72;60.00;100132.84;2044435;28;20034;-66
2021/06/12 03:58:07;;;;;;;7.45;5.10;;;;;;;23.72;59.96;100135.59;2043498;28;20307;-66
2021/06/12 03:59:10;;;;;;;5.83;5.23;;;;;;;23.71;59.96;100133.88;2051884;28;20022;-66
2021/06/12 04:00:14;;;;;;;5.85;5.35;;;;;;;23.70;60.02;100135.78;2050325;28;20267;-66
2021/06/12 04:01:16;;;;;;;5.68;5.18;;;;;;;23.71;60.11;100131.13;2050248;28;20867;-66
2021/06/12 04:02:16;;;;;;;5.53;5.03;;;;;;;23.71;59.97;100137.50;2056940;28;20016;-66
2021/06/12 04:03:17;;;;;;;5.77;5.17;;;;;;;23.70;60.19;100140.44;2049923;28;20022;-66
2021/06/12 04:04:20;;;;;;;5.30;4.80;;;;;;;23.71;60.01;100136.63;2050155;28;20699;-66
2021/06/12 04:05:20;;;;;;;5.85;5.25;;;;;;;23.71;59.94;100142.13;2051966;28;20037;-66
2021/06/12 04:06:21;;;;;;;6.20;4.77;;;;;;;23.71;59.86;100143.00;2051412;28;21038;-66
2021/06/12 04:07:21;;;;;;;5.97;5.37;;;;;;;23.71;59.96;100148.53;2052537;28;20132;-65
2021/06/12 04:08:22;;;;;;;5.77;5.27;;;;;;;23.71;60.01;100147.63;2053111;28;20495;-66
2021/06/12 04:09:22;;;;;;;5.90;5.40;;;;;;;23.71;60.10;100150.38;2048658;28;20109;-66
2021/06/12 04:10:23;;;;;;;6.07;5.40;;;;;;;23.71;59.94;100153.13;2053606;28;20370;-66
2021/06/12 04:11:23;;;;;;;5.63;5.10;;;;;;;23.69;60.06;100146.94;2048851;28;20034;-66
2021/06/12 04:12:23;;;;;;;6.63;5.10;;;;;;;23.70;60.00;100145.94;2061780;28;20083;-66
2021/06/12 04:13:26;;;;;;;6.03;5.40;;;;;;;23.70;59.98;100145.94;2052400;28;20066;-66
2021/06/12 04:14:26;;;;;;;5.47;4.97;;;;;;;23.71;60.02;100147.63;2049362;28;20014;-66
2021/06/12 04:15:28;;;;;;;5.70;5.13;;;;;;;23.70;59.96;100149.53;2041529;28;20030;-66
2021/06/12 04:16:28;;;;;;;6.57;5.32;;;;;;;23.70;60.03;100145.94;2048713;28;20623;-66
2021/06/12 04:17:29;;;;;;;5.83;5.23;;;;;;;23.69;60.02;100147.84;2045028;28;20022;-66
2021/06/12 04:18:29;;;;;;;6.07;5.47;;;;;;;23.69;60.08;100144.19;2044440;28;20022;-66
2021/06/12 04:19:30;;;;;;;5.47;4.97;;;;;;;23.70;60.02;100148.69;2046347;28;20661;-66
2021/06/12 04:20:30;;;;;;;5.33;4.83;;;;;;;23.69;59.95;100147.84;2050161;28;20026;-66
2021/06/12 04:21:30;;;;;;;6.00;5.40;;;;;;;23.70;59.93;100149.53;2048562;28;20382;-66
2021/06/12 04:22:31;;;;;;;5.63;4.63;;;;;;;23.69;60.12;100144.19;2051905;28;20344;-66
2021/06/12 04:23:32;;;;;;;5.90;5.30;;;;;;;23.70;59.95;100145.94;2046040;28;20025;-66
2021/06/12 04:24:35;;;;;;;5.65;5.13;;;;;;;23.68;59.82;100142.50;2043165;28;20097;-66
2021/06/12 04:25:36;;;;;;;5.47;4.97;;;;;;;23.70;59.92;100148.69;2044282;28;20581;-66
2021/06/12 04:26:37;;;;;;;5.90;5.30;;;;;;;23.69;59.98;100146.94;2048673;28;20430;-66
2021/06/12 04:27:39;;;;;;;6.60;5.87;;;;;;;23.68;59.97;100140.59;2052225;28;20057;-66
2021/06/12 04:28:39;;;;;;;6.20;5.60;;;;;;;23.69;59.91;100149.69;2048849;28;20129;-66
2021/06/12 04:29:40;;;;;;;4.80;4.40;;;;;;;23.68;59.89;100148.84;2046728;28;20354;-66
2021/06/12 04:30:41;;;;;;;5.95;4.80;;;;;;;23.68;60.00;100151.59;2051359;28;20096;-66
2021/06/12 04:31:41;;;;;;;5.40;4.90;;;;;;;23.68;60.20;100150.75;2051485;28;20088;-66
2021/06/12 04:32:42;;;;;;;6.30;5.80;;;;;;;23.67;59.88;100147.16;2043979;28;20078;-66
2021/06/12 04:33:42;;;;;;;5.97;5.37;;;;;;;23.68;59.99;100154.34;2043386;28;20027;-66
2021/06/12 04:34:42;;;;;;;5.17;4.47;;;;;;;23.68;59.95;100153.50;2044589;28;20520;-66
2021/06/12 04:35:43;;;;;;;6.33;5.73;;;;;;;23.68;59.98;100154.34;2048501;28;20579;-66
2021/06/12 04:36:43;;;;;;;5.50;5.00;;;;;;;23.68;60.01;100153.50;2051902;28;20487;-66
2021/06/12 04:37:45;;;;;;;5.30;4.80;;;;;;;23.68;60.00;100157.09;2048587;28;20189;-66
2021/06/12 04:38:45;;;;;;;5.10;4.63;;;;;;;23.69;59.95;100160.72;2051361;28;20610;-66
2021/06/12 04:39:45;;;;;;;6.43;5.20;;;;;;;23.68;60.07;100153.50;2050674;28;20034;-66
2021/06/12 04:40:46;;;;;;;5.37;4.80;;;;;;;23.67;60.16;100155.41;2048529;28;21075;-66
2021/06/12 04:41:46;;;;;;;6.10;5.50;;;;;;;23.67;59.97;100158.16;2047989;28;20108;-66
2021/06/12 04:42:47;;;;;;;5.33;4.83;;;;;;;23.68;60.08;100164.50;2050362;28;20121;-66
2021/06/12 04:43:48;;;;;;;7.40;4.60;;;;;;;23.67;59.99;100163.66;2050166;28;20136;-66
2021/06/12 04:44:48;;;;;;;6.40;4.70;;;;;;;23.67;60.15;100168.31;2059074;28;20124;-66
2021/06/12 04:45:49;;;;;;;5.30;4.80;;;;;;;23.66;60.06;100159.16;2058306;28;20029;-66
2021/06/12 04:46:49;;;;;;;4.90;4.40;;;;;;;23.67;60.12;100168.31;2057811;28;20029;-66
2021/06/12 04:47:51;;;;;;;5.43;4.93;;;;;;;23.67;60.04;100169.16;2050293;28;20541;-66
2021/06/12 04:48:51;;;;;;;5.70;5.18;;;;;;;23.66;60.04;100169.34;2046147;28;20470;-66
2021/06/12 04:49:51;;;;;;;4.97;4.50;;;;;;;23.67;60.01;100173.81;2050326;28;20034;-66
2021/06/12 04:50:52;;;;;;;5.63;5.10;;;;;;;23.67;59.98;100174.66;2044104;28;20041;-66
2021/06/12 04:51:53;;;;;;;5.57;4.93;;;;;;;23.68;60.07;100175.53;2052275;28;20460;-66
2021/06/12 04:52:53;;;;;;;5.90;5.30;;;;;;;23.67;59.85;100180.16;2051745;28;20041;-66
2021/06/12 04:53:54;;;;;;;5.57;5.07;;;;;;;23.67;60.08;100179.31;2045031;28;20043;-66